sensor_id;sensor_type;location;lat;lon;timestamp;P1;durP1;ratioP1;P2;durP2;ratioP2
9661;SDS011;24982;52.344;12.990;2023-08-06T00:00:06;5.38;;;4.72;;
9661;SDS011;24982;52.344;12.990;2023-08-06T00:03:09;5.78;;;4.78;;
9661;SDS011;24982;52.344;12.990;2023-08-06T00:06:12;6.78;;;5.20;;
9661;SDS011;24982;52.344;12.990;2023-08-06T00:09:14;7.18;;;5.05;;
9661;SDS011;24982;52.344;12.990;2023-08-06T00:12:16;5.05;;;4.60;;
9661;SDS011;24982;52.344;12.990;2023-08-06T00:15:18;5.43;;;4.60;;
9661;SDS011;24982;52.344;12.990;2023-08-06T00:18:20;5.10;;;4.70;;
9661;SDS011;24982;52.344;12.990;2023-08-06T00:21:24;6.50;;;4.90;;
9661;SDS011;24982;52.344;12.990;2023-08-06T00:24:26;5.30;;;4.80;;
9661;SDS011;24982;52.344;12.990;2023-08-06T00:27:28;5.28;;;4.78;;
9661;SDS011;24982;52.344;12.990;2023-08-06T00:30:30;5.97;;;4.80;;
9661;SDS011;24982;52.344;12.990;2023-08-06T00:33:33;5.68;;;4.80;;
9661;SDS011;24982;52.344;12.990;2023-08-06T00:36:36;6.45;;;4.75;;
9661;SDS011;24982;52.344;12.990;2023-08-06T00:39:38;6.22;;;4.90;;
9661;SDS011;24982;52.344;12.990;2023-08-06T00:42:40;6.55;;;4.43;;
9661;SDS011;24982;52.344;12.990;2023-08-06T00:45:44;5.38;;;4.57;;
9661;SDS011;24982;52.344;12.990;2023-08-06T00:48:46;5.45;;;4.90;;
9661;SDS011;24982;52.344;12.990;2023-08-06T00:51:49;5.95;;;4.85;;
9661;SDS011;24982;52.344;12.990;2023-08-06T00:54:51;5.10;;;4.70;;
9661;SDS011;24982;52.344;12.990;2023-08-06T00:57:53;6.10;;;4.82;;
9661;SDS011;24982;52.344;12.990;2023-08-06T01:00:57;4.82;;;4.43;;
9661;SDS011;24982;52.344;12.990;2023-08-06T01:03:59;5.10;;;4.70;;
9661;SDS011;24982;52.344;12.990;2023-08-06T01:07:04;6.65;;;4.80;;
9661;SDS011;24982;52.344;12.990;2023-08-06T01:10:19;5.00;;;4.50;;
9661;SDS011;24982;52.344;12.990;2023-08-06T01:13:27;5.05;;;4.60;;
9661;SDS011;24982;52.344;12.990;2023-08-06T01:16:33;6.32;;;4.75;;
9661;SDS011;24982;52.344;12.990;2023-08-06T01:19:37;5.47;;;4.63;;
9661;SDS011;24982;52.344;12.990;2023-08-06T01:22:40;4.93;;;4.50;;
9661;SDS011;24982;52.344;12.990;2023-08-06T01:25:43;5.45;;;4.40;;
9661;SDS011;24982;52.344;12.990;2023-08-06T01:28:52;4.88;;;4.47;;
9661;SDS011;24982;52.344;12.990;2023-08-06T01:32:00;5.90;;;4.80;;
9661;SDS011;24982;52.344;12.990;2023-08-06T01:35:05;5.60;;;5.10;;
9661;SDS011;24982;52.344;12.990;2023-08-06T01:38:09;5.22;;;4.88;;
9661;SDS011;24982;52.344;12.990;2023-08-06T01:41:11;5.20;;;4.80;;
9661;SDS011;24982;52.344;12.990;2023-08-06T01:44:13;6.30;;;5.38;;
9661;SDS011;24982;52.344;12.990;2023-08-06T01:47:15;5.30;;;4.75;;
9661;SDS011;24982;52.344;12.990;2023-08-06T01:50:17;6.72;;;4.82;;
9661;SDS011;24982;52.344;12.990;2023-08-06T01:53:21;5.57;;;4.95;;
9661;SDS011;24982;52.344;12.990;2023-08-06T01:56:23;5.82;;;5.32;;
9661;SDS011;24982;52.344;12.990;2023-08-06T01:59:25;5.90;;;5.43;;
9661;SDS011;24982;52.344;12.990;2023-08-06T02:02:27;5.72;;;5.32;;
9661;SDS011;24982;52.344;12.990;2023-08-06T02:05:29;5.80;;;5.15;;
9661;SDS011;24982;52.344;12.990;2023-08-06T02:08:34;6.00;;;5.35;;
9661;SDS011;24982;52.344;12.990;2023-08-06T02:11:36;5.25;;;4.93;;
9661;SDS011;24982;52.344;12.990;2023-08-06T02:14:38;7.15;;;5.57;;
9661;SDS011;24982;52.344;12.990;2023-08-06T02:17:40;6.00;;;5.35;;
9661;SDS011;24982;52.344;12.990;2023-08-06T02:20:42;5.72;;;5.32;;
9661;SDS011;24982;52.344;12.990;2023-08-06T02:23:45;6.30;;;5.78;;
9661;SDS011;24982;52.344;12.990;2023-08-06T02:26:47;6.38;;;5.35;;
9661;SDS011;24982;52.344;12.990;2023-08-06T02:29:51;6.35;;;5.85;;
9661;SDS011;24982;52.344;12.990;2023-08-06T02:32:53;6.65;;;6.05;;
9661;SDS011;24982;52.344;12.990;2023-08-06T02:36:01;6.32;;;5.82;;
9661;SDS011;24982;52.344;12.990;2023-08-06T02:39:05;7.55;;;6.72;;
9661;SDS011;24982;52.344;12.990;2023-08-06T02:42:07;6.72;;;6.15;;
9661;SDS011;24982;52.344;12.990;2023-08-06T02:45:10;7.20;;;6.47;;
9661;SDS011;24982;52.344;12.990;2023-08-06T02:48:12;7.40;;;6.50;;
9661;SDS011;24982;52.344;12.990;2023-08-06T02:51:15;7.35;;;6.75;;
9661;SDS011;24982;52.344;12.990;2023-08-06T02:54:18;8.00;;;7.30;;
9661;SDS011;24982;52.344;12.990;2023-08-06T02:57:21;7.28;;;6.68;;
9661;SDS011;24982;52.344;12.990;2023-08-06T03:00:25;7.72;;;6.88;;
9661;SDS011;24982;52.344;12.990;2023-08-06T03:03:27;7.95;;;7.22;;
9661;SDS011;24982;52.344;12.990;2023-08-06T03:06:33;8.07;;;7.38;;
9661;SDS011;24982;52.344;12.990;2023-08-06T03:09:38;8.18;;;7.38;;
9661;SDS011;24982;52.344;12.990;2023-08-06T03:12:40;7.15;;;6.63;;
9661;SDS011;24982;52.344;12.990;2023-08-06T03:15:42;7.45;;;6.78;;
9661;SDS011;24982;52.344;12.990;2023-08-06T03:18:47;8.48;;;7.78;;
9661;SDS011;24982;52.344;12.990;2023-08-06T03:21:49;7.80;;;7.20;;
9661;SDS011;24982;52.344;12.990;2023-08-06T03:24:53;8.80;;;8.00;;
9661;SDS011;24982;52.344;12.990;2023-08-06T03:27:57;9.70;;;7.80;;
9661;SDS011;24982;52.344;12.990;2023-08-06T03:31:00;7.93;;;7.32;;
9661;SDS011;24982;52.344;12.990;2023-08-06T03:34:06;7.72;;;7.13;;
9661;SDS011;24982;52.344;12.990;2023-08-06T03:37:09;8.30;;;7.47;;
9661;SDS011;24982;52.344;12.990;2023-08-06T03:40:12;7.70;;;7.20;;
9661;SDS011;24982;52.344;12.990;2023-08-06T03:43:14;8.02;;;7.43;;
9661;SDS011;24982;52.344;12.990;2023-08-06T03:46:17;8.27;;;7.68;;
9661;SDS011;24982;52.344;12.990;2023-08-06T03:49:19;7.68;;;7.07;;
9661;SDS011;24982;52.344;12.990;2023-08-06T03:52:21;8.15;;;7.45;;
9661;SDS011;24982;52.344;12.990;2023-08-06T03:55:25;7.57;;;6.97;;
9661;SDS011;24982;52.344;12.990;2023-08-06T03:58:27;7.80;;;7.20;;
9661;SDS011;24982;52.344;12.990;2023-08-06T04:01:29;8.07;;;7.18;;
9661;SDS011;24982;52.344;12.990;2023-08-06T04:04:31;8.20;;;7.40;;
9661;SDS011;24982;52.344;12.990;2023-08-06T04:07:33;7.97;;;7.32;;
9661;SDS011;24982;52.344;12.990;2023-08-06T04:10:36;8.02;;;7.32;;
9661;SDS011;24982;52.344;12.990;2023-08-06T04:13:38;8.18;;;7.50;;
9661;SDS011;24982;52.344;12.990;2023-08-06T04:16:43;8.70;;;8.00;;
9661;SDS011;24982;52.344;12.990;2023-08-06T04:19:46;8.25;;;7.65;;
9661;SDS011;24982;52.344;12.990;2023-08-06T04:22:48;8.68;;;7.82;;
9661;SDS011;24982;52.344;12.990;2023-08-06T04:25:52;8.38;;;7.68;;
9661;SDS011;24982;52.344;12.990;2023-08-06T04:28:58;9.10;;;8.40;;
9661;SDS011;24982;52.344;12.990;2023-08-06T04:32:01;8.25;;;7.55;;
9661;SDS011;24982;52.344;12.990;2023-08-06T04:35:04;8.85;;;8.07;;
9661;SDS011;24982;52.344;12.990;2023-08-06T04:38:06;8.10;;;7.38;;
9661;SDS011;24982;52.344;12.990;2023-08-06T04:41:10;9.20;;;8.30;;
9661;SDS011;24982;52.344;12.990;2023-08-06T04:44:12;8.10;;;7.50;;
9661;SDS011;24982;52.344;12.990;2023-08-06T04:47:14;8.38;;;7.68;;
9661;SDS011;24982;52.344;12.990;2023-08-06T04:50:16;8.20;;;7.60;;
9661;SDS011;24982;52.344;12.990;2023-08-06T04:53:18;8.15;;;7.35;;
9661;SDS011;24982;52.344;12.990;2023-08-06T04:56:21;8.18;;;7.57;;
9661;SDS011;24982;52.344;12.990;2023-08-06T04:59:23;8.35;;;7.65;;
9661;SDS011;24982;52.344;12.990;2023-08-06T05:02:25;8.00;;;7.20;;
9661;SDS011;24982;52.344;12.990;2023-08-06T05:05:27;7.95;;;7.22;;
9661;SDS011;24982;52.344;12.990;2023-08-06T05:08:29;7.78;;;7.18;;
9661;SDS011;24982;52.344;12.990;2023-08-06T05:11:33;8.27;;;7.68;;
9661;SDS011;24982;52.344;12.990;2023-08-06T05:14:35;7.60;;;7.00;;
9661;SDS011;24982;52.344;12.990;2023-08-06T05:17:37;8.10;;;7.50;;
9661;SDS011;24982;52.344;12.990;2023-08-06T05:20:40;7.75;;;7.25;;
9661;SDS011;24982;52.344;12.990;2023-08-06T05:23:43;7.40;;;6.85;;
9661;SDS011;24982;52.344;12.990;2023-08-06T05:26:46;7.05;;;6.60;;
9661;SDS011;24982;52.344;12.990;2023-08-06T05:29:48;7.20;;;6.70;;
9661;SDS011;24982;52.344;12.990;2023-08-06T05:32:50;7.07;;;6.47;;
9661;SDS011;24982;52.344;12.990;2023-08-06T05:35:52;6.78;;;6.20;;
9661;SDS011;24982;52.344;12.990;2023-08-06T05:38:54;6.45;;;6.00;;
9661;SDS011;24982;52.344;12.990;2023-08-06T05:41:58;6.55;;;6.05;;
9661;SDS011;24982;52.344;12.990;2023-08-06T05:45:00;6.28;;;5.85;;
9661;SDS011;24982;52.344;12.990;2023-08-06T05:48:02;6.10;;;5.57;;
9661;SDS011;24982;52.344;12.990;2023-08-06T05:51:04;5.90;;;5.57;;
9661;SDS011;24982;52.344;12.990;2023-08-06T05:54:07;5.95;;;5.53;;
9661;SDS011;24982;52.344;12.990;2023-08-06T05:57:11;6.18;;;5.68;;
9661;SDS011;24982;52.344;12.990;2023-08-06T06:00:13;5.78;;;5.35;;
9661;SDS011;24982;52.344;12.990;2023-08-06T06:03:15;6.35;;;5.85;;
9661;SDS011;24982;52.344;12.990;2023-08-06T06:06:17;5.68;;;5.22;;
9661;SDS011;24982;52.344;12.990;2023-08-06T06:09:20;6.60;;;6.00;;
9661;SDS011;24982;52.344;12.990;2023-08-06T06:12:23;5.32;;;5.03;;
9661;SDS011;24982;52.344;12.990;2023-08-06T06:15:26;5.60;;;5.18;;
9661;SDS011;24982;52.344;12.990;2023-08-06T06:18:28;6.75;;;6.25;;
9661;SDS011;24982;52.344;12.990;2023-08-06T06:21:31;6.60;;;6.10;;
9661;SDS011;24982;52.344;12.990;2023-08-06T06:24:33;5.47;;;5.13;;
9661;SDS011;24982;52.344;12.990;2023-08-06T06:27:36;6.20;;;5.63;;
9661;SDS011;24982;52.344;12.990;2023-08-06T06:30:38;5.60;;;5.18;;
9661;SDS011;24982;52.344;12.990;2023-08-06T06:33:40;5.50;;;5.10;;
9661;SDS011;24982;52.344;12.990;2023-08-06T06:36:42;5.30;;;5.00;;
9661;SDS011;24982;52.344;12.990;2023-08-06T06:39:44;5.10;;;4.70;;
9661;SDS011;24982;52.344;12.990;2023-08-06T06:42:47;5.40;;;5.00;;
9661;SDS011;24982;52.344;12.990;2023-08-06T06:45:52;6.25;;;5.85;;
9661;SDS011;24982;52.344;12.990;2023-08-06T06:48:55;5.80;;;5.25;;
9661;SDS011;24982;52.344;12.990;2023-08-06T06:51:56;5.88;;;5.30;;
9661;SDS011;24982;52.344;12.990;2023-08-06T06:54:59;5.88;;;5.38;;
9661;SDS011;24982;52.344;12.990;2023-08-06T06:58:02;5.97;;;5.55;;
9661;SDS011;24982;52.344;12.990;2023-08-06T07:01:04;5.95;;;5.43;;
9661;SDS011;24982;52.344;12.990;2023-08-06T07:04:06;6.03;;;5.63;;
9661;SDS011;24982;52.344;12.990;2023-08-06T07:07:08;5.65;;;5.25;;
9661;SDS011;24982;52.344;12.990;2023-08-06T07:10:10;6.50;;;5.90;;
9661;SDS011;24982;52.344;12.990;2023-08-06T07:13:14;5.68;;;5.25;;
9661;SDS011;24982;52.344;12.990;2023-08-06T07:16:16;5.18;;;4.88;;
9661;SDS011;24982;52.344;12.990;2023-08-06T07:19:18;12.10;;;5.03;;
9661;SDS011;24982;52.344;12.990;2023-08-06T07:22:20;5.20;;;4.80;;
9661;SDS011;24982;52.344;12.990;2023-08-06T07:25:22;5.05;;;4.65;;
9661;SDS011;24982;52.344;12.990;2023-08-06T07:28:26;4.60;;;4.30;;
9661;SDS011;24982;52.344;12.990;2023-08-06T07:31:28;5.63;;;5.22;;
9661;SDS011;24982;52.344;12.990;2023-08-06T07:34:30;5.00;;;4.70;;
9661;SDS011;24982;52.344;12.990;2023-08-06T07:37:32;5.07;;;4.78;;
9661;SDS011;24982;52.344;12.990;2023-08-06T07:40:35;5.65;;;5.15;;
9661;SDS011;24982;52.344;12.990;2023-08-06T07:43:39;4.85;;;4.53;;
9661;SDS011;24982;52.344;12.990;2023-08-06T07:46:42;4.55;;;4.20;;
9661;SDS011;24982;52.344;12.990;2023-08-06T07:49:44;4.90;;;4.60;;
9661;SDS011;24982;52.344;12.990;2023-08-06T07:52:46;4.10;;;3.85;;
9661;SDS011;24982;52.344;12.990;2023-08-06T07:55:49;4.65;;;4.35;;
9661;SDS011;24982;52.344;12.990;2023-08-06T07:58:53;4.65;;;4.35;;
9661;SDS011;24982;52.344;12.990;2023-08-06T08:01:55;5.03;;;4.72;;
9661;SDS011;24982;52.344;12.990;2023-08-06T08:04:57;4.80;;;4.43;;
9661;SDS011;24982;52.344;12.990;2023-08-06T08:07:59;4.60;;;4.30;;
9661;SDS011;24982;52.344;12.990;2023-08-06T08:11:01;4.80;;;4.47;;
9661;SDS011;24982;52.344;12.990;2023-08-06T08:14:05;4.70;;;4.40;;
9661;SDS011;24982;52.344;12.990;2023-08-06T08:17:07;4.55;;;4.20;;
9661;SDS011;24982;52.344;12.990;2023-08-06T08:20:09;4.50;;;4.20;;
9661;SDS011;24982;52.344;12.990;2023-08-06T08:23:11;4.05;;;3.85;;
9661;SDS011;24982;52.344;12.990;2023-08-06T08:26:13;4.38;;;4.07;;
9661;SDS011;24982;52.344;12.990;2023-08-06T08:29:17;4.10;;;3.90;;
9661;SDS011;24982;52.344;12.990;2023-08-06T08:32:19;4.50;;;4.30;;
9661;SDS011;24982;52.344;12.990;2023-08-06T08:35:21;4.80;;;4.50;;
9661;SDS011;24982;52.344;12.990;2023-08-06T08:47:24;4.30;;;4.00;;
9661;SDS011;24982;52.344;12.990;2023-08-06T08:50:26;4.38;;;4.18;;
9661;SDS011;24982;52.344;12.990;2023-08-06T08:53:28;4.63;;;4.30;;
9661;SDS011;24982;52.344;12.990;2023-08-06T08:56:31;4.40;;;4.10;;
9661;SDS011;24982;52.344;12.990;2023-08-06T08:59:33;4.80;;;4.50;;
9661;SDS011;24982;52.344;12.990;2023-08-06T09:02:37;5.00;;;4.70;;
9661;SDS011;24982;52.344;12.990;2023-08-06T09:05:41;4.63;;;4.30;;
9661;SDS011;24982;52.344;12.990;2023-08-06T09:08:47;4.60;;;4.30;;
9661;SDS011;24982;52.344;12.990;2023-08-06T09:11:57;4.35;;;4.05;;
9661;SDS011;24982;52.344;12.990;2023-08-06T09:15:02;4.32;;;4.13;;
9661;SDS011;24982;52.344;12.990;2023-08-06T09:18:10;5.13;;;4.82;;
9661;SDS011;24982;52.344;12.990;2023-08-06T09:21:13;5.13;;;4.82;;
9661;SDS011;24982;52.344;12.990;2023-08-06T09:24:16;5.80;;;5.40;;
9661;SDS011;24982;52.344;12.990;2023-08-06T09:27:18;6.07;;;5.50;;
9661;SDS011;24982;52.344;12.990;2023-08-06T09:30:28;6.95;;;6.45;;
9661;SDS011;24982;52.344;12.990;2023-08-06T09:33:34;5.55;;;5.25;;
9661;SDS011;24982;52.344;12.990;2023-08-06T09:36:39;6.82;;;5.55;;
9661;SDS011;24982;52.344;12.990;2023-08-06T09:39:42;5.88;;;5.47;;
9661;SDS011;24982;52.344;12.990;2023-08-06T09:42:44;5.70;;;5.30;;
9661;SDS011;24982;52.344;12.990;2023-08-06T09:45:46;6.43;;;5.93;;
9661;SDS011;24982;52.344;12.990;2023-08-06T09:48:50;6.00;;;5.55;;
9661;SDS011;24982;52.344;12.990;2023-08-06T09:51:52;6.30;;;5.90;;
9661;SDS011;24982;52.344;12.990;2023-08-06T09:54:56;5.55;;;5.25;;
9661;SDS011;24982;52.344;12.990;2023-08-06T09:57:58;6.13;;;5.68;;
9661;SDS011;24982;52.344;12.990;2023-08-06T10:01:00;5.78;;;5.47;;
9661;SDS011;24982;52.344;12.990;2023-08-06T10:04:05;6.15;;;5.70;;
9661;SDS011;24982;52.344;12.990;2023-08-06T10:07:08;6.20;;;5.80;;
9661;SDS011;24982;52.344;12.990;2023-08-06T10:10:10;6.45;;;5.85;;
9661;SDS011;24982;52.344;12.990;2023-08-06T10:13:13;6.75;;;6.18;;
9661;SDS011;24982;52.344;12.990;2023-08-06T10:16:16;6.10;;;5.70;;
9661;SDS011;24982;52.344;12.990;2023-08-06T10:19:20;7.13;;;6.35;;
9661;SDS011;24982;52.344;12.990;2023-08-06T10:22:22;8.15;;;7.38;;
9661;SDS011;24982;52.344;12.990;2023-08-06T10:25:24;10.50;;;6.60;;
9661;SDS011;24982;52.344;12.990;2023-08-06T10:28:33;8.38;;;7.40;;
9661;SDS011;24982;52.344;12.990;2023-08-06T10:34:58;6.90;;;6.30;;
9661;SDS011;24982;52.344;12.990;2023-08-06T10:38:04;6.80;;;6.28;;
9661;SDS011;24982;52.344;12.990;2023-08-06T10:41:08;7.03;;;6.43;;
9661;SDS011;24982;52.344;12.990;2023-08-06T10:44:17;7.05;;;6.53;;
9661;SDS011;24982;52.344;12.990;2023-08-06T10:47:26;6.10;;;5.70;;
9661;SDS011;24982;52.344;12.990;2023-08-06T10:50:29;6.72;;;6.22;;
9661;SDS011;24982;52.344;12.990;2023-08-06T10:53:32;6.30;;;5.97;;
9661;SDS011;24982;52.344;12.990;2023-08-06T10:56:39;6.22;;;5.82;;
9661;SDS011;24982;52.344;12.990;2023-08-06T10:59:42;6.70;;;6.20;;
9661;SDS011;24982;52.344;12.990;2023-08-06T11:02:44;6.72;;;6.22;;
9661;SDS011;24982;52.344;12.990;2023-08-06T11:05:50;6.50;;;6.00;;
9661;SDS011;24982;52.344;12.990;2023-08-06T11:08:53;7.07;;;6.57;;
9661;SDS011;24982;52.344;12.990;2023-08-06T11:11:55;7.82;;;7.22;;
9661;SDS011;24982;52.344;12.990;2023-08-06T11:14:57;6.43;;;6.03;;
9661;SDS011;24982;52.344;12.990;2023-08-06T11:17:59;6.75;;;6.25;;
9661;SDS011;24982;52.344;12.990;2023-08-06T11:21:04;6.70;;;6.30;;
9661;SDS011;24982;52.344;12.990;2023-08-06T11:24:06;6.60;;;6.20;;
9661;SDS011;24982;52.344;12.990;2023-08-06T11:27:11;7.85;;;7.07;;
9661;SDS011;24982;52.344;12.990;2023-08-06T11:30:14;6.93;;;6.43;;
9661;SDS011;24982;52.344;12.990;2023-08-06T11:33:19;7.65;;;7.05;;
9661;SDS011;24982;52.344;12.990;2023-08-06T11:36:30;6.57;;;6.18;;
9661;SDS011;24982;52.344;12.990;2023-08-06T11:39:32;7.25;;;6.68;;
9661;SDS011;24982;52.344;12.990;2023-08-06T11:42:35;7.00;;;6.50;;
9661;SDS011;24982;52.344;12.990;2023-08-06T11:45:38;7.10;;;6.57;;
9661;SDS011;24982;52.344;12.990;2023-08-06T11:48:50;6.88;;;6.38;;
9661;SDS011;24982;52.344;12.990;2023-08-06T11:51:55;7.18;;;6.57;;
9661;SDS011;24982;52.344;12.990;2023-08-06T11:55:00;6.80;;;6.30;;
9661;SDS011;24982;52.344;12.990;2023-08-06T11:58:06;6.65;;;6.07;;
9661;SDS011;24982;52.344;12.990;2023-08-06T12:01:08;6.70;;;6.20;;
9661;SDS011;24982;52.344;12.990;2023-08-06T12:04:10;6.57;;;6.07;;
9661;SDS011;24982;52.344;12.990;2023-08-06T12:07:14;6.38;;;5.97;;
9661;SDS011;24982;52.344;12.990;2023-08-06T12:10:18;6.45;;;5.95;;
9661;SDS011;24982;52.344;12.990;2023-08-06T12:13:20;6.68;;;6.20;;
9661;SDS011;24982;52.344;12.990;2023-08-06T12:16:22;7.40;;;6.90;;
9661;SDS011;24982;52.344;12.990;2023-08-06T12:19:24;6.03;;;5.63;;
9661;SDS011;24982;52.344;12.990;2023-08-06T12:22:28;7.10;;;6.50;;
9661;SDS011;24982;52.344;12.990;2023-08-06T12:25:32;7.38;;;6.88;;
9661;SDS011;24982;52.344;12.990;2023-08-06T12:28:34;6.82;;;6.32;;
9661;SDS011;24982;52.344;12.990;2023-08-06T12:31:36;6.90;;;6.50;;
9661;SDS011;24982;52.344;12.990;2023-08-06T12:34:38;7.28;;;6.78;;
9661;SDS011;24982;52.344;12.990;2023-08-06T12:37:42;8.02;;;7.32;;
9661;SDS011;24982;52.344;12.990;2023-08-06T12:40:46;7.95;;;7.28;;
9661;SDS011;24982;52.344;12.990;2023-08-06T12:43:48;7.72;;;7.13;;
9661;SDS011;24982;52.344;12.990;2023-08-06T12:46:50;6.57;;;6.07;;
9661;SDS011;24982;52.344;12.990;2023-08-06T12:49:52;6.45;;;5.95;;
9661;SDS011;24982;52.344;12.990;2023-08-06T12:52:55;7.60;;;7.00;;
9661;SDS011;24982;52.344;12.990;2023-08-06T12:55:57;7.45;;;6.90;;
9661;SDS011;24982;52.344;12.990;2023-08-06T12:58:59;7.65;;;6.95;;
9661;SDS011;24982;52.344;12.990;2023-08-06T13:02:01;6.65;;;6.13;;
9661;SDS011;24982;52.344;12.990;2023-08-06T13:05:03;7.18;;;6.60;;
9661;SDS011;24982;52.344;12.990;2023-08-06T13:08:07;7.78;;;6.97;;
9661;SDS011;24982;52.344;12.990;2023-08-06T13:11:09;7.53;;;6.93;;
9661;SDS011;24982;52.344;12.990;2023-08-06T13:14:12;6.95;;;6.40;;
9661;SDS011;24982;52.344;12.990;2023-08-06T13:17:15;8.68;;;7.97;;
9661;SDS011;24982;52.344;12.990;2023-08-06T13:20:17;7.72;;;7.03;;
9661;SDS011;24982;52.344;12.990;2023-08-06T13:23:21;7.63;;;7.03;;
9661;SDS011;24982;52.344;12.990;2023-08-06T13:26:23;7.50;;;6.95;;
9661;SDS011;24982;52.344;12.990;2023-08-06T13:29:25;6.75;;;6.20;;
9661;SDS011;24982;52.344;12.990;2023-08-06T13:32:27;7.93;;;7.20;;
9661;SDS011;24982;52.344;12.990;2023-08-06T13:35:29;7.43;;;6.90;;
9661;SDS011;24982;52.344;12.990;2023-08-06T13:38:33;7.22;;;6.72;;
9661;SDS011;24982;52.344;12.990;2023-08-06T13:41:36;6.53;;;5.97;;
9661;SDS011;24982;52.344;12.990;2023-08-06T13:44:38;6.93;;;6.43;;
9661;SDS011;24982;52.344;12.990;2023-08-06T13:47:40;6.88;;;6.38;;
9661;SDS011;24982;52.344;12.990;2023-08-06T13:50:43;6.07;;;5.45;;
9661;SDS011;24982;52.344;12.990;2023-08-06T13:53:46;4.63;;;4.22;;
9661;SDS011;24982;52.344;12.990;2023-08-06T13:56:48;2.60;;;2.42;;
9661;SDS011;24982;52.344;12.990;2023-08-06T13:59:51;2.75;;;2.30;;
9661;SDS011;24982;52.344;12.990;2023-08-06T14:02:53;2.50;;;2.30;;
9661;SDS011;24982;52.344;12.990;2023-08-06T14:05:55;2.50;;;2.30;;
9661;SDS011;24982;52.344;12.990;2023-08-06T14:08:58;2.42;;;2.15;;
9661;SDS011;24982;52.344;12.990;2023-08-06T14:12:00;3.63;;;2.05;;
9661;SDS011;24982;52.344;12.990;2023-08-06T14:15:03;2.10;;;1.90;;
9661;SDS011;24982;52.344;12.990;2023-08-06T14:18:05;2.30;;;2.20;;
9661;SDS011;24982;52.344;12.990;2023-08-06T14:21:08;2.00;;;1.90;;
9661;SDS011;24982;52.344;12.990;2023-08-06T14:24:11;2.30;;;2.20;;
9661;SDS011;24982;52.344;12.990;2023-08-06T14:27:13;3.17;;;2.30;;
9661;SDS011;24982;52.344;12.990;2023-08-06T14:30:15;2.53;;;2.42;;
9661;SDS011;24982;52.344;12.990;2023-08-06T14:33:17;3.10;;;2.60;;
9661;SDS011;24982;52.344;12.990;2023-08-06T14:36:19;3.88;;;3.17;;
9661;SDS011;24982;52.344;12.990;2023-08-06T14:39:23;3.95;;;3.60;;
9661;SDS011;24982;52.344;12.990;2023-08-06T14:42:25;4.30;;;3.90;;
9661;SDS011;24982;52.344;12.990;2023-08-06T14:45:27;4.47;;;4.07;;
9661;SDS011;24982;52.344;12.990;2023-08-06T14:48:29;5.88;;;4.60;;
9661;SDS011;24982;52.344;12.990;2023-08-06T14:51:31;5.32;;;4.80;;
9661;SDS011;24982;52.344;12.990;2023-08-06T14:54:35;5.22;;;4.82;;
9661;SDS011;24982;52.344;12.990;2023-08-06T14:57:37;6.00;;;5.50;;
9661;SDS011;24982;52.344;12.990;2023-08-06T15:00:39;6.03;;;5.43;;
9661;SDS011;24982;52.344;12.990;2023-08-06T15:03:41;7.15;;;6.47;;
9661;SDS011;24982;52.344;12.990;2023-08-06T15:06:42;6.95;;;6.28;;
9661;SDS011;24982;52.344;12.990;2023-08-06T15:09:46;6.80;;;5.80;;
9661;SDS011;24982;52.344;12.990;2023-08-06T15:12:48;6.80;;;6.10;;
9661;SDS011;24982;52.344;12.990;2023-08-06T15:15:50;8.23;;;6.28;;
9661;SDS011;24982;52.344;12.990;2023-08-06T15:18:52;6.97;;;6.28;;
9661;SDS011;24982;52.344;12.990;2023-08-06T15:21:54;6.45;;;5.85;;
9661;SDS011;24982;52.344;12.990;2023-08-06T15:24:57;6.80;;;6.03;;
9661;SDS011;24982;52.344;12.990;2023-08-06T15:28:00;5.22;;;4.82;;
9661;SDS011;24982;52.344;12.990;2023-08-06T15:31:02;8.27;;;5.53;;
9661;SDS011;24982;52.344;12.990;2023-08-06T15:34:06;7.32;;;5.85;;
9661;SDS011;24982;52.344;12.990;2023-08-06T15:37:08;9.27;;;6.32;;
9661;SDS011;24982;52.344;12.990;2023-08-06T15:40:12;8.10;;;5.60;;
9661;SDS011;24982;52.344;12.990;2023-08-06T15:43:14;6.65;;;5.25;;
9661;SDS011;24982;52.344;12.990;2023-08-06T15:46:15;6.18;;;4.80;;
9661;SDS011;24982;52.344;12.990;2023-08-06T15:49:17;6.18;;;5.63;;
9661;SDS011;24982;52.344;12.990;2023-08-06T15:52:19;9.40;;;6.05;;
9661;SDS011;24982;52.344;12.990;2023-08-06T15:55:23;7.57;;;5.40;;
9661;SDS011;24982;52.344;12.990;2023-08-06T15:58:25;5.90;;;5.30;;
9661;SDS011;24982;52.344;12.990;2023-08-06T16:01:27;7.97;;;5.47;;
9661;SDS011;24982;52.344;12.990;2023-08-06T16:04:29;6.88;;;5.50;;
9661;SDS011;24982;52.344;12.990;2023-08-06T16:07:31;5.50;;;5.00;;
9661;SDS011;24982;52.344;12.990;2023-08-06T16:10:36;5.75;;;5.10;;
9661;SDS011;24982;52.344;12.990;2023-08-06T16:13:38;5.57;;;4.70;;
9661;SDS011;24982;52.344;12.990;2023-08-06T16:16:40;6.32;;;4.55;;
9661;SDS011;24982;52.344;12.990;2023-08-06T16:19:42;7.60;;;5.13;;
9661;SDS011;24982;52.344;12.990;2023-08-06T16:22:45;4.82;;;4.43;;
9661;SDS011;24982;52.344;12.990;2023-08-06T16:25:48;8.23;;;4.93;;
9661;SDS011;24982;52.344;12.990;2023-08-06T16:28:50;6.25;;;4.90;;
9661;SDS011;24982;52.344;12.990;2023-08-06T16:31:52;6.55;;;5.30;;
9661;SDS011;24982;52.344;12.990;2023-08-06T16:34:54;11.02;;;5.13;;
9661;SDS011;24982;52.344;12.990;2023-08-06T16:37:56;5.65;;;4.88;;
9661;SDS011;24982;52.344;12.990;2023-08-06T16:41:00;5.20;;;4.70;;
9661;SDS011;24982;52.344;12.990;2023-08-06T16:44:04;6.60;;;5.30;;
9661;SDS011;24982;52.344;12.990;2023-08-06T16:47:08;7.35;;;5.22;;
9661;SDS011;24982;52.344;12.990;2023-08-06T16:50:10;5.30;;;4.80;;
9661;SDS011;24982;52.344;12.990;2023-08-06T16:53:13;5.57;;;5.07;;
9661;SDS011;24982;52.344;12.990;2023-08-06T16:56:17;6.53;;;5.03;;
9661;SDS011;24982;52.344;12.990;2023-08-06T16:59:18;8.30;;;5.57;;
9661;SDS011;24982;52.344;12.990;2023-08-06T17:02:20;6.30;;;5.65;;
9661;SDS011;24982;52.344;12.990;2023-08-06T17:05:22;5.53;;;5.07;;
9661;SDS011;24982;52.344;12.990;2023-08-06T17:08:24;5.90;;;5.05;;
9661;SDS011;24982;52.344;12.990;2023-08-06T17:11:31;6.30;;;5.03;;
9661;SDS011;24982;52.344;12.990;2023-08-06T17:14:33;5.82;;;5.00;;
9661;SDS011;24982;52.344;12.990;2023-08-06T17:17:35;5.35;;;4.95;;
9661;SDS011;24982;52.344;12.990;2023-08-06T17:20:37;5.28;;;4.88;;
9661;SDS011;24982;52.344;12.990;2023-08-06T17:23:42;5.15;;;4.68;;
9661;SDS011;24982;52.344;12.990;2023-08-06T17:26:45;4.95;;;4.55;;
9661;SDS011;24982;52.344;12.990;2023-08-06T17:29:47;5.10;;;4.60;;
9661;SDS011;24982;52.344;12.990;2023-08-06T17:32:49;5.43;;;4.95;;
9661;SDS011;24982;52.344;12.990;2023-08-06T17:35:51;6.53;;;5.28;;
9661;SDS011;24982;52.344;12.990;2023-08-06T17:38:53;4.95;;;4.55;;
9661;SDS011;24982;52.344;12.990;2023-08-06T17:41:57;4.85;;;4.45;;
9661;SDS011;24982;52.344;12.990;2023-08-06T17:45:01;6.57;;;4.20;;
9661;SDS011;24982;52.344;12.990;2023-08-06T17:48:04;5.70;;;5.18;;
9661;SDS011;24982;52.344;12.990;2023-08-06T17:51:06;4.75;;;4.45;;
9661;SDS011;24982;52.344;12.990;2023-08-06T17:54:08;4.47;;;4.18;;
9661;SDS011;24982;52.344;12.990;2023-08-06T17:57:11;4.97;;;4.47;;
9661;SDS011;24982;52.344;12.990;2023-08-06T18:00:13;5.22;;;4.50;;
9661;SDS011;24982;52.344;12.990;2023-08-06T18:03:18;4.78;;;4.03;;
9661;SDS011;24982;52.344;12.990;2023-08-06T18:06:20;6.00;;;4.70;;
9661;SDS011;24982;52.344;12.990;2023-08-06T18:09:22;5.07;;;4.40;;
9661;SDS011;24982;52.344;12.990;2023-08-06T18:12:25;4.38;;;4.07;;
9661;SDS011;24982;52.344;12.990;2023-08-06T18:15:27;7.55;;;4.40;;
9661;SDS011;24982;52.344;12.990;2023-08-06T18:18:29;5.13;;;4.53;;
9661;SDS011;24982;52.344;12.990;2023-08-06T18:21:31;5.97;;;4.82;;
9661;SDS011;24982;52.344;12.990;2023-08-06T18:24:33;4.82;;;4.43;;
9661;SDS011;24982;52.344;12.990;2023-08-06T18:27:36;5.88;;;5.30;;
9661;SDS011;24982;52.344;12.990;2023-08-06T18:30:39;5.53;;;4.93;;
9661;SDS011;24982;52.344;12.990;2023-08-06T18:33:41;6.13;;;5.10;;